Time;durP1;ratioP1;P1;durP2;ratioP2;P2;SDS_P1;SDS_P2;PMS_P1;PMS_P2;Temp;Humidity;BMP_temperature;BMP_pressure;BME280_temperature;BME280_humidity;BME280_pressure;Samples;Min_cycle;Max_cycle;Signal;HPM_P1;HPM_P2
2022/12/15 00:43:10;;;;;;;25.17;11.60;;;0.60;99.90;;;-1.92;95.41;99093.44;10613804;27;20059;-86
2022/12/15 00:48:14;;;;;;;31.03;13.43;;;0.70;99.90;;;-1.92;95.45;99105.59;10569242;27;20060;-86
2022/12/15 01:20:18;;;;;;;26.40;11.70;;;0.70;99.90;;;-1.88;96.66;99114.84;10588049;27;20062;-86
2022/12/15 01:25:24;;;;;;;24.13;12.47;;;0.70;99.90;;;-1.89;96.87;99115.81;10569104;27;20059;-85
2022/12/15 01:30:27;;;;;;;30.30;12.63;;;0.70;99.90;;;-1.93;97.02;99127.38;10569901;27;20060;-86
2022/12/15 01:35:31;;;;;;;34.63;13.43;;;0.70;99.90;;;-1.90;97.35;99116.75;10606415;27;20056;-86
2022/12/15 01:40:44;;;;;;;24.23;11.47;;;0.70;99.90;;;-1.87;97.75;99103.47;10581230;27;20052;-86
2022/12/15 01:46:11;;;;;;;29.10;13.53;;;0.70;99.90;;;-1.85;97.79;99095.56;10588903;27;20196;-85
2022/12/15 01:51:32;;;;;;;27.23;11.27;;;0.70;99.90;;;-1.84;98.05;99092.03;10628611;27;20059;-86
2022/12/15 01:56:45;;;;;;;23.30;9.20;;;0.80;99.90;;;-1.83;97.98;99109.31;10609398;27;20064;-85
2022/12/15 02:01:48;;;;;;;25.40;11.17;;;0.80;99.90;;;-1.85;98.23;99103.38;10569875;27;20062;-86
2022/12/15 02:06:52;;;;;;;25.37;10.80;;;0.80;99.90;;;-1.79;98.10;99101.16;10589241;27;20070;-86
2022/12/15 02:12:05;;;;;;;26.73;12.37;;;0.80;99.90;;;-1.78;98.23;99105.41;10581317;27;20091;-86
2022/12/15 02:17:18;;;;;;;25.27;11.93;;;0.80;99.90;;;-1.78;97.94;99107.19;10594448;27;20063;-84
2022/12/15 02:23:02;;;;;;;30.03;12.87;;;0.80;99.90;;;-1.78;98.46;99109.78;10632100;27;20572;-85
2022/12/15 02:28:20;;;;;;;28.53;12.10;;;0.80;99.90;;;-1.77;98.49;99108.84;10586168;27;20516;-85
2022/12/15 02:33:28;;;;;;;29.07;11.97;;;0.80;99.90;;;-1.78;98.53;99115.81;10614454;27;20541;-85
2022/12/15 02:38:37;;;;;;;35.73;15.17;;;0.80;99.90;;;-1.83;98.54;99117.94;10577817;27;20502;-84
2022/12/15 02:43:39;;;;;;;28.37;11.60;;;0.70;99.90;;;-1.85;98.65;99112.03;10584604;27;20063;-84
2022/12/15 02:49:20;;;;;;;32.17;13.83;;;0.70;99.90;;;-1.86;99.11;99110.34;10580653;27;20453;-84
2022/12/15 02:55:10;;;;;;;28.20;12.90;;;0.70;99.90;;;-1.84;99.18;99123.28;10610809;27;20499;-84
2022/12/15 03:00:15;;;;;;;32.23;14.27;;;0.70;99.90;;;-1.88;99.43;99120.06;10629365;27;20060;-84
2022/12/15 03:05:21;;;;;;;31.93;14.43;;;0.70;99.90;;;-1.90;99.66;99128.00;10597573;27;20063;-85
2022/12/15 03:10:25;;;;;;;32.33;14.33;;;0.70;99.90;;;-1.86;100.00;99130.34;10575760;27;20067;-85
2022/12/15 03:15:28;;;;;;;35.37;14.40;;;0.70;99.90;;;-1.86;100.00;99133.78;10615169;27;20056;-86
2022/12/15 03:20:37;;;;;;;30.23;12.83;;;0.70;99.90;;;-1.85;100.00;99142.44;10590001;27;20145;-86
2022/12/15 03:25:40;;;;;;;30.77;13.87;;;0.70;99.90;;;-1.82;100.00;99147.41;10617551;27;20056;-86
2022/12/15 03:30:43;;;;;;;33.40;13.50;;;0.70;99.90;;;-1.80;100.00;99148.13;10611414;27;20062;-86
2022/12/15 03:35:47;;;;;;;28.50;12.33;;;0.70;99.90;;;-1.79;100.00;99147.19;10596369;27;20389;-85
2022/12/15 03:40:50;;;;;;;37.33;13.90;;;0.80;99.90;;;-1.77;100.00;99143.53;10603786;27;20064;-85
2022/12/15 03:45:53;;;;;;;27.93;12.73;;;0.80;99.90;;;-1.77;100.00;99140.09;10586806;27;20059;-85
2022/12/15 03:50:56;;;;;;;31.17;13.37;;;0.80;99.90;;;-1.75;100.00;99159.03;10581567;27;20062;-85
2022/12/15 03:55:59;;;;;;;33.13;12.90;;;0.80;99.90;;;-1.75;100.00;99161.63;10548298;27;20137;-83
2022/12/15 04:01:20;;;;;;;32.20;13.07;;;0.80;99.90;;;-1.72;100.00;99164.84;10610368;27;20063;-84
2022/12/15 04:06:23;;;;;;;29.63;13.15;;;0.80;99.90;;;-1.72;100.00;99175.25;10577724;27;20063;-84
2022/12/15 04:11:26;;;;;;;34.87;14.07;;;0.80;99.90;;;-1.69;100.00;99174.19;10595930;27;20564;-84
2022/12/15 04:16:29;;;;;;;36.23;13.93;;;0.90;99.90;;;-1.70;100.00;99182.94;10574956;27;20079;-84
2022/12/15 04:21:32;;;;;;;36.33;15.57;;;0.90;99.90;;;-1.67;100.00;99178.34;10579525;27;20055;-85
2022/12/15 05:36:19;;;;;;;47.80;19.75;;;1.00;99.90;;;-1.58;100.00;99280.19;10583583;28;20052;-84
2022/12/15 05:41:23;;;;;;;43.10;15.97;;;0.90;99.90;;;-1.60;100.00;99290.75;10548618;28;20056;-84
2022/12/15 05:46:26;;;;;;;38.80;16.63;;;1.00;99.90;;;-1.57;100.00;99294.88;10551646;28;20106;-84
2022/12/15 05:51:29;;;;;;;50.17;17.90;;;1.00;99.90;;;-1.62;100.00;99308.25;10587382;28;20413;-84
2022/12/15 05:56:32;;;;;;;42.03;16.13;;;1.00;99.90;;;-1.57;100.00;99308.75;10589158;27;20063;-85
2022/12/15 06:01:36;;;;;;;56.63;23.03;;;1.00;99.90;;;-1.55;100.00;99325.13;10560828;27;20063;-84
2022/12/15 06:06:40;;;;;;;68.97;22.70;;;1.00;99.90;;;-1.55;100.00;99335.53;10612641;27;20056;-84
2022/12/15 06:11:43;;;;;;;59.97;21.93;;;1.00;99.90;;;-1.58;100.00;99358.38;10574332;27;20588;-84
2022/12/15 06:16:46;;;;;;;58.60;22.80;;;1.00;99.90;;;-1.57;100.00;99378.25;10611533;27;20469;-84
2022/12/15 06:21:53;;;;;;;54.83;19.43;;;1.00;99.90;;;-1.56;100.00;99386.00;10592094;27;20058;-84
2022/12/15 06:26:56;;;;;;;46.70;18.47;;;1.00;99.90;;;-1.54;100.00;99394.50;10592333;27;20087;-84
2022/12/15 06:31:59;;;;;;;52.73;18.87;;;1.00;99.90;;;-1.53;100.00;99392.75;10619596;27;20059;-84
2022/12/15 06:37:02;;;;;;;46.23;18.50;;;1.00;99.90;;;-1.53;100.00;99388.34;10583303;27;20422;-84
2022/12/15 06:42:05;;;;;;;57.67;18.43;;;1.00;99.90;;;-1.49;100.00;99397.63;10589822;27;20060;-92
2022/12/15 06:47:08;;;;;;;56.53;19.57;;;1.10;99.90;;;-1.47;100.00;99393.13;10597058;27;20484;-89
2022/12/15 06:52:11;;;;;;;51.83;17.87;;;1.10;99.90;;;-1.46;100.00;99384.34;10628971;27;20055;-94
2022/12/15 06:57:14;;;;;;;52.80;18.17;;;1.20;99.90;;;-1.38;100.00;99408.09;10573354;27;20063;-91
2022/12/15 07:02:17;;;;;;;45.70;18.53;;;1.20;99.90;;;-1.37;100.00;99408.94;10625341;27;20461;-89
2022/12/15 07:07:28;;;;;;;46.47;18.67;;;1.20;99.90;;;-1.32;100.00;99426.81;10593385;27;20052;-89
2022/12/15 07:12:31;;;;;;;56.37;18.60;;;1.30;99.90;;;-1.30;100.00;99424.97;10613066;27;20063;-87
2022/12/15 07:17:35;;;;;;;58.23;18.93;;;1.30;99.90;;;-1.25;100.00;99423.69;10579336;27;20473;-90
2022/12/15 07:22:39;;;;;;;46.43;18.27;;;1.30;99.90;;;-1.18;100.00;99450.97;10582093;27;20056;-89
2022/12/15 07:27:42;;;;;;;34.83;15.70;;;1.40;99.90;;;-1.13;100.00;99441.03;10599891;27;20131;-92
2022/12/15 07:32:45;;;;;;;45.30;16.57;;;1.50;99.90;;;-1.02;100.00;99445.47;10558962;27;20055;-92
2022/12/15 07:37:52;;;;;;;41.53;15.90;;;1.60;99.90;;;-0.95;100.00;99451.88;10613779;27;20067;-92
2022/12/15 07:42:56;;;;;;;54.00;18.73;;;1.70;99.90;;;-0.93;100.00;99465.63;10576113;28;20114;-96
2022/12/15 07:47:59;;;;;;;41.47;16.43;;;1.70;99.90;;;-0.93;100.00;99464.81;10613901;27;20051;-96
2022/12/15 07:53:02;;;;;;;33.80;15.33;;;1.70;99.90;;;-0.94;100.00;99461.38;10611296;27;20035;-96
2022/12/15 07:58:07;;;;;;;42.93;16.07;;;1.70;99.90;;;-0.88;100.00;99466.13;10621632;27;20032;-95
2022/12/15 08:03:10;;;;;;;47.37;17.60;;;1.80;99.90;;;-0.86;100.00;99481.66;10592513;27;20056;-89
2022/12/15 08:08:14;;;;;;;37.17;14.30;;;1.80;99.90;;;-0.76;100.00;99468.78;10599572;27;20085;-90
2022/12/15 08:13:17;;;;;;;44.60;16.67;;;1.90;99.90;;;-0.70;100.00;99484.00;10601653;27;20051;-89
2022/12/15 08:18:40;;;;;;;47.03;16.13;;;2.00;99.90;;;-0.62;100.00;99520.78;10600796;27;20095;-89
2022/12/15 08:23:43;;;;;;;46.00;16.43;;;2.10;99.90;;;-0.57;100.00;99534.31;10571389;27;20052;-89
2022/12/15 08:28:47;;;;;;;46.43;16.27;;;2.10;99.90;;;-0.50;100.00;99514.66;10576865;27;20056;-89
2022/12/15 08:33:50;;;;;;;47.13;17.03;;;2.20;99.90;;;-0.46;100.00;99510.03;10593277;27;20114;-90
2022/12/15 08:38:57;;;;;;;45.47;17.47;;;2.30;99.90;;;-0.32;100.00;99520.28;10588246;27;20063;-89
2022/12/15 08:44:01;;;;;;;52.27;18.90;;;2.40;99.90;;;-0.20;100.00;99531.56;10621506;27;20091;-89
2022/12/15 08:49:04;;;;;;;41.20;17.40;;;2.50;99.90;;;-0.06;100.00;99533.97;10594387;27;20063;-88
2022/12/15 08:54:08;;;;;;;43.33;17.73;;;2.70;99.90;;;0.07;100.00;99536.50;10611420;27;20064;-90
2022/12/15 08:59:11;;;;;;;41.47;16.27;;;2.80;99.90;;;0.17;100.00;99540.03;10603729;27;20105;-88
2022/12/15 09:04:14;;;;;;;44.77;16.67;;;3.00;99.90;;;0.22;100.00;99549.19;10590923;27;20493;-88
2022/12/15 09:09:18;;;;;;;42.33;16.50;;;3.00;99.90;;;0.22;100.00;99543.13;10571180;27;20434;-88
2022/12/15 09:14:21;;;;;;;41.23;16.80;;;3.00;99.90;;;0.28;100.00;99547.06;10619554;27;20146;-95
2022/12/15 09:19:31;;;;;;;51.07;20.40;;;3.10;99.90;;;0.39;100.00;99554.91;10623426;27;20051;-95
2022/12/15 09:24:34;;;;;;;44.97;19.73;;;3.20;99.90;;;0.49;100.00;99561.09;10612481;27;20055;-92
2022/12/15 09:29:37;;;;;;;57.83;21.67;;;3.30;99.90;;;0.60;100.00;99548.03;10559489;27;20060;-89
2022/12/15 09:34:40;;;;;;;45.47;18.90;;;3.40;99.90;;;0.72;100.00;99547.06;10579390;27;20059;-89
2022/12/15 09:39:44;;;;;;;46.57;19.13;;;3.50;99.90;;;0.85;100.00;99541.69;10589976;27;20479;-89
2022/12/15 09:44:49;;;;;;;42.23;17.77;;;3.60;99.90;;;0.94;100.00;99540.94;10573670;27;20056;-91
2022/12/15 09:50:08;;;;;;;46.33;17.43;;;3.70;99.90;;;1.03;100.00;99550.69;10564998;27;20055;-86
2022/12/15 09:55:24;;;;;;;40.03;16.80;;;3.80;99.90;;;1.12;100.00;99549.09;10610721;27;20105;-89
2022/12/15 10:00:47;;;;;;;46.70;16.77;;;3.90;99.90;;;1.19;100.00;99537.16;10590318;27;20087;-91
2022/12/15 10:06:17;;;;;;;54.33;19.87;;;4.00;99.90;;;1.31;100.00;99523.09;10595834;27;20499;-84
2022/12/15 10:11:42;;;;;;;44.50;17.17;;;4.00;99.90;;;1.44;99.73;99522.94;10596455;27;20063;-84
2022/12/15 10:17:09;;;;;;;61.93;20.33;;;4.20;99.90;;;1.49;98.59;99518.13;10625008;27;20055;-84
2022/12/15 10:22:22;;;;;;;41.37;15.73;;;4.20;99.90;;;1.49;97.96;99528.59;10609158;27;20056;-84
2022/12/15 10:28:04;;;;;;;36.53;15.97;;;4.10;99.90;;;1.44;97.54;99532.53;10590035;27;20056;-84
2022/12/15 10:33:23;;;;;;;47.53;19.98;;;4.10;99.90;;;1.44;97.54;99525.56;10591230;27;20148;-84
2022/12/15 10:38:41;;;;;;;54.00;19.93;;;4.10;99.90;;;1.40;97.18;99520.69;10598868;27;20440;-84
2022/12/15 10:43:48;;;;;;;60.07;22.00;;;4.10;99.90;;;1.30;96.20;99521.44;10596112;27;20070;-83
2022/12/15 10:49:07;;;;;;;44.90;19.90;;;4.10;99.90;;;1.30;96.59;99529.28;10634830;27;20064;-84
2022/12/15 10:54:12;;;;;;;48.10;19.40;;;4.00;99.90;;;1.24;95.96;99521.09;10639896;27;20059;-84
2022/12/15 10:59:32;;;;;;;45.77;17.40;;;4.00;99.90;;;1.24;96.04;99519.31;10617194;27;20050;-84
2022/12/15 11:04:35;;;;;;;37.57;17.50;;;3.90;99.90;;;1.32;96.18;99513.47;10622143;27;20083;-84
2022/12/15 11:09:39;;;;;;;60.80;20.33;;;4.00;99.90;;;1.35;95.66;99518.44;10631696;27;20059;-84
2022/12/15 11:14:46;;;;;;;52.30;21.63;;;4.10;99.90;;;1.36;95.75;99524.50;10611484;27;20056;-84
2022/12/15 11:20:03;;;;;;;61.30;27.97;;;4.10;99.90;;;1.29;95.71;99522.38;10613969;27;20105;-84
2022/12/15 11:25:43;;;;;;;49.30;21.80;;;4.00;99.90;;;1.31;95.69;99522.25;10555833;27;20056;-84
2022/12/15 11:30:59;;;;;;;61.03;26.97;;;4.00;99.90;;;1.33;95.62;99529.03;10544332;28;20052;-84
2022/12/15 11:36:31;;;;;;;143.60;74.70;;;4.00;99.90;;;1.38;95.58;99533.91;10577351;27;20516;-84
2022/12/15 11:42:10;;;;;;;58.07;24.67;;;4.00;99.90;;;1.43;95.69;99533.50;10615366;27;20070;-84
2022/12/15 11:47:28;;;;;;;79.03;29.43;;;4.00;99.90;;;1.45;95.30;99537.69;10553301;28;20068;-84
2022/12/15 11:52:55;;;;;;;49.13;22.13;;;4.00;99.90;;;1.46;95.50;99536.72;10594379;27;20060;-84
2022/12/15 11:59:08;;;;;;;58.37;23.57;;;4.00;99.90;;;1.43;95.13;99546.59;10565933;27;20060;-84
2022/12/15 12:04:20;;;;;;;58.20;23.10;;;4.00;99.90;;;1.46;95.22;99541.97;10570089;28;20060;-84
2022/12/15 12:09:35;;;;;;;51.70;20.57;;;4.00;99.90;;;1.51;95.38;99544.22;10595190;27;20117;-84
2022/12/15 12:15:06;;;;;;;48.33;18.73;;;4.10;99.90;;;1.52;95.19;99532.78;10607553;27;20056;-85
2022/12/15 12:20:38;;;;;;;54.17;22.57;;;4.10;99.90;;;1.55;95.13;99550.84;10602216;27;20403;-84
2022/12/15 12:25:58;;;;;;;40.63;19.40;;;4.10;99.90;;;1.56;94.97;99548.09;10593515;27;20503;-84
2022/12/15 12:31:35;;;;;;;49.53;19.33;;;4.20;99.90;;;1.55;94.92;99545.59;10606294;27;20064;-85
2022/12/15 12:36:42;;;;;;;38.87;18.10;;;4.10;99.90;;;1.53;95.00;99544.91;10608152;27;20063;-86
2022/12/15 12:42:08;;;;;;;52.27;19.77;;;4.10;99.90;;;1.48;95.16;99513.84;10579635;27;20060;-85
2022/12/15 12:47:19;;;;;;;58.17;22.73;;;4.10;99.90;;;1.47;95.00;99517.44;10536087;28;20060;-86
2022/12/15 12:52:35;;;;;;;61.50;23.27;;;4.00;99.90;;;1.45;94.98;99529.81;10585035;27;20060;-86
2022/12/15 12:57:41;;;;;;;58.80;19.80;;;4.00;99.90;;;1.47;95.41;99532.31;10597510;27;20087;-84
2022/12/15 13:03:09;;;;;;;46.27;19.23;;;4.00;99.90;;;1.48;95.38;99544.44;10596769;27;20071;-85
2022/12/15 13:08:12;;;;;;;88.40;24.97;;;4.00;99.90;;;1.50;95.58;99547.75;10631680;27;20150;-87
2022/12/15 13:13:30;;;;;;;52.50;18.63;;;4.00;99.90;;;1.50;95.64;99547.75;10592391;27;20064;-87
2022/12/15 13:19:01;;;;;;;76.67;21.17;;;4.00;99.90;;;1.49;95.65;99546.94;10590561;27;20072;-88
2022/12/15 13:24:04;;;;;;;132.73;37.90;;;4.00;99.90;;;1.51;96.00;99547.66;10619597;27;20052;-88
2022/12/15 13:29:12;;;;;;;78.20;23.93;;;4.00;99.90;;;1.49;95.85;99552.16;10610086;27;20131;-88
2022/12/15 13:34:28;;;;;;;181.07;35.53;;;4.00;99.90;;;1.45;95.97;99552.56;10607673;27;20063;-89
2022/12/15 13:39:34;;;;;;;78.20;24.20;;;4.00;99.90;;;1.40;96.07;99552.09;10590840;27;20465;-89
2022/12/15 13:44:50;;;;;;;165.97;36.60;;;3.90;99.90;;;1.32;96.30;99571.88;10624641;27;20060;-88
2022/12/15 13:50:14;;;;;;;89.67;27.47;;;3.80;99.90;;;1.25;96.74;99572.47;10621870;27;20062;-88
2022/12/15 13:55:31;;;;;;;65.13;23.57;;;3.80;99.90;;;1.14;96.73;99567.28;10638601;27;20061;-88
2022/12/15 14:00:38;;;;;;;59.43;21.17;;;3.70;99.90;;;1.05;97.38;99574.09;10550946;27;20078;-88
2022/12/15 14:05:58;;;;;;;93.83;27.70;;;3.60;99.90;;;1.01;97.82;99575.28;10608519;27;20062;-88
2022/12/15 14:11:01;;;;;;;49.30;19.27;;;3.50;99.90;;;0.93;98.19;99569.84;10642159;27;20466;-88
2022/12/15 14:16:25;;;;;;;56.53;20.90;;;3.50;99.90;;;0.90;98.52;99576.16;10613661;27;20056;-88
2022/12/15 14:21:29;;;;;;;54.17;21.73;;;3.40;99.90;;;0.83;98.93;99564.50;10611161;27;20587;-88
2022/12/15 14:26:32;;;;;;;67.93;23.13;;;3.30;99.90;;;0.82;99.32;99588.16;10567330;27;20056;-88
2022/12/15 14:31:36;;;;;;;70.20;22.50;;;3.30;99.90;;;0.77;99.72;99583.28;10604483;27;20062;-88
2022/12/15 14:36:41;;;;;;;54.57;19.80;;;3.20;99.90;;;0.74;99.88;99571.28;10597650;27;20059;-88
2022/12/15 14:41:49;;;;;;;59.90;21.33;;;3.20;99.90;;;0.69;100.00;99576.03;10614105;27;20525;-88
2022/12/15 14:46:52;;;;;;;66.07;24.20;;;3.10;99.90;;;0.65;100.00;99571.16;10580403;27;20055;-87
2022/12/15 14:52:01;;;;;;;58.90;22.17;;;3.10;99.90;;;0.62;100.00;99571.44;10569260;27;20051;-88
2022/12/15 14:57:22;;;;;;;62.70;23.70;;;3.10;99.90;;;0.58;100.00;99564.75;10598856;27;20052;-88
2022/12/15 15:02:28;;;;;;;60.73;22.10;;;3.00;99.90;;;0.56;100.00;99577.13;10594223;27;20070;-88
2022/12/15 15:07:34;;;;;;;61.93;23.17;;;3.00;99.90;;;0.53;100.00;99593.88;10587567;27;20152;-87
2022/12/15 15:12:44;;;;;;;61.83;22.27;;;3.00;99.90;;;0.50;100.00;99581.06;10636005;27;20404;-85
2022/12/15 15:17:50;;;;;;;71.00;25.60;;;3.00;99.90;;;0.49;100.00;99580.22;10595351;27;20083;-83
2022/12/15 15:23:16;;;;;;;57.53;21.57;;;2.90;99.90;;;0.51;100.00;99601.84;10576285;27;21289;-83
2022/12/15 15:28:21;;;;;;;77.33;27.93;;;3.00;99.90;;;0.53;100.00;99583.41;10585616;27;20063;-83
2022/12/15 15:33:25;;;;;;;54.83;22.67;;;3.00;99.90;;;0.52;100.00;99576.53;10630886;27;20078;-83
2022/12/15 15:38:33;;;;;;;78.60;28.07;;;3.00;99.90;;;0.52;100.00;99585.19;10591206;27;20063;-83
2022/12/15 15:43:37;;;;;;;69.97;28.30;;;3.00;99.90;;;0.51;100.00;99565.25;10593343;27;20166;-83
2022/12/15 15:49:06;;;;;;;72.53;26.37;;;3.00;99.90;;;0.52;100.00;99558.22;10612916;27;20537;-83
2022/12/15 15:54:16;;;;;;;66.67;25.47;;;3.00;99.90;;;0.53;100.00;99572.97;10600365;27;20067;-83
2022/12/15 15:59:20;;;;;;;79.37;30.50;;;3.00;99.90;;;0.52;100.00;99574.75;10606461;27;20495;-83
2022/12/15 16:04:24;;;;;;;72.20;28.57;;;3.00;99.90;;;0.51;100.00;99569.63;10628318;27;20060;-83
2022/12/15 16:09:27;;;;;;;82.03;29.47;;;3.00;99.90;;;0.50;100.00;99554.91;10582600;27;20066;-83
2022/12/15 16:14:30;;;;;;;66.63;24.47;;;3.00;99.90;;;0.48;100.00;99559.41;10582810;27;20056;-83
2022/12/15 16:19:33;;;;;;;70.53;28.13;;;3.00;99.90;;;0.47;100.00;99558.56;10566756;27;20075;-83
2022/12/15 16:24:42;;;;;;;82.27;29.07;;;3.00;99.90;;;0.46;100.00;99571.78;10625081;27;20148;-83
2022/12/15 16:29:45;;;;;;;62.47;24.90;;;2.90;99.90;;;0.45;100.00;99568.34;10637360;27;20430;-82
2022/12/15 16:34:48;;;;;;;65.70;24.90;;;2.90;99.90;;;0.44;100.00;99560.63;10576870;27;20146;-83
2022/12/15 16:39:54;;;;;;;70.73;26.83;;;2.90;99.90;;;0.43;100.00;99585.09;10608668;27;20479;-81
2022/12/15 16:44:57;;;;;;;65.50;25.33;;;2.90;99.90;;;0.43;100.00;99598.16;10584869;27;20193;-86
2022/12/15 16:50:00;;;;;;;68.10;26.77;;;2.90;99.90;;;0.42;100.00;99588.63;10565905;27;20055;-90
2022/12/15 16:55:03;;;;;;;74.10;25.10;;;2.90;99.90;;;0.40;100.00;99582.72;10591393;27;20083;-82
2022/12/15 17:00:39;;;;;;;81.53;29.50;;;2.80;99.90;;;0.40;100.00;99580.09;10621062;27;20129;-85
2022/12/15 17:05:48;;;;;;;69.30;25.43;;;2.80;99.90;;;0.38;100.00;99592.47;10593735;27;20056;-83
2022/12/15 17:10:51;;;;;;;71.43;28.63;;;2.80;99.90;;;0.37;100.00;99609.94;10588508;27;20056;-86
2022/12/15 17:15:54;;;;;;;60.80;24.50;;;2.80;99.90;;;0.39;100.00;99615.03;10597853;27;20090;-86
2022/12/15 17:21:24;;;;;;;60.97;23.13;;;2.80;99.90;;;0.40;100.00;99608.84;10602498;27;20083;-86
2022/12/15 17:26:31;;;;;;;59.07;23.83;;;2.80;99.90;;;0.37;100.00;99594.25;10550904;28;20067;-87
2022/12/15 17:31:34;;;;;;;61.77;23.37;;;2.80;99.90;;;0.37;100.00;99596.84;10577043;27;20059;-83
2022/12/15 17:36:38;;;;;;;52.47;21.60;;;2.80;99.90;;;0.37;100.00;99606.47;10589831;27;20055;-83
2022/12/15 17:41:41;;;;;;;59.90;22.90;;;2.80;99.90;;;0.38;100.00;99605.53;10588258;27;20056;-82
2022/12/15 17:47:04;;;;;;;73.90;28.13;;;2.80;99.90;;;0.38;100.00;99615.97;10605391;27;20059;-86
2022/12/15 17:52:33;;;;;;;60.93;26.40;;;2.80;99.90;;;0.37;100.00;99603.88;10596856;27;20147;-84
2022/12/15 17:57:36;;;;;;;53.63;21.60;;;2.80;99.90;;;0.35;100.00;99605.75;10577864;27;20055;-83
2022/12/15 18:02:39;;;;;;;61.37;23.87;;;2.80;99.90;;;0.34;100.00;99599.69;10598487;27;20059;-83
2022/12/15 18:07:44;;;;;;;60.03;25.40;;;2.80;99.90;;;0.33;100.00;99602.44;10595288;27;20056;-84
2022/12/15 18:12:46;;;;;;;50.97;21.10;;;2.80;99.90;;;0.32;100.00;99598.16;10583640;27;20424;-84
2022/12/15 18:17:49;;;;;;;43.97;18.93;;;2.80;99.90;;;0.31;100.00;99593.88;10595740;27;20067;-84
2022/12/15 18:22:53;;;;;;;52.37;19.90;;;2.70;99.90;;;0.31;100.00;99593.88;10583065;27;20504;-84
2022/12/15 18:27:59;;;;;;;44.83;20.23;;;2.70;99.90;;;0.30;100.00;99592.19;10614993;27;20503;-84
2022/12/15 18:33:01;;;;;;;51.60;20.00;;;2.70;99.90;;;0.26;100.00;99592.44;10615517;27;20621;-84
2022/12/15 18:38:24;;;;;;;59.80;19.93;;;2.70;99.90;;;0.26;100.00;99608.13;10630611;27;20055;-84
2022/12/15 18:43:32;;;;;;;53.03;20.15;;;2.70;99.90;;;0.26;100.00;99605.50;10614041;27;20154;-84
2022/12/15 18:48:36;;;;;;;47.97;19.20;;;2.70;99.90;;;0.29;100.00;99601.00;10596484;27;20079;-84
2022/12/15 18:53:39;;;;;;;45.37;18.40;;;2.70;99.90;;;0.30;100.00;99607.88;10595382;27;20060;-84
2022/12/15 18:58:43;;;;;;;40.60;17.17;;;2.70;99.90;;;0.31;100.00;99599.09;10596833;27;20063;-84
2022/12/15 19:03:46;;;;;;;52.20;20.80;;;2.80;99.90;;;0.31;100.00;99599.09;10585984;27;20609;-84
2022/12/15 19:08:50;;;;;;;49.23;19.33;;;2.70;99.90;;;0.27;100.00;99603.72;10570631;27;20510;-85
2022/12/15 19:13:53;;;;;;;48.37;19.90;;;2.70;99.90;;;0.29;100.00;99586.13;10598534;27;20084;-86
2022/12/15 19:29:53;;;;;;;52.30;19.23;;;2.70;99.90;;;0.28;100.00;99591.50;10598749;27;20116;-85
2022/12/15 19:34:56;;;;;;;51.40;19.50;;;2.70;99.90;;;0.25;100.00;99588.16;10576629;27;20458;-85
2022/12/15 19:40:01;;;;;;;46.50;18.50;;;2.70;99.90;;;0.23;100.00;99578.75;10576798;27;20056;-85
2022/12/15 19:45:27;;;;;;;51.20;18.67;;;2.60;99.90;;;0.23;100.00;99584.81;10588551;27;20511;-85
2022/12/15 19:50:36;;;;;;;37.87;15.77;;;2.60;99.90;;;0.22;100.00;99582.34;10594279;27;20106;-85
2022/12/15 19:55:40;;;;;;;40.27;15.17;;;2.60;99.90;;;0.23;100.00;99586.59;10604119;27;20134;-85
2022/12/15 20:00:43;;;;;;;39.87;15.83;;;2.60;99.90;;;0.24;100.00;99575.19;10615368;27;20060;-85
2022/12/15 20:05:50;;;;;;;36.83;15.50;;;2.60;99.90;;;0.25;100.00;99561.22;10596225;27;20066;-85
2022/12/15 20:10:54;;;;;;;35.90;13.67;;;2.70;99.90;;;0.24;100.00;99543.84;10625257;27;20066;-85
2022/12/15 20:15:57;;;;;;;37.93;14.40;;;2.70;99.90;;;0.24;100.00;99525.56;10608720;27;20087;-85
2022/12/15 20:21:00;;;;;;;39.20;14.93;;;2.70;99.90;;;0.24;100.00;99509.88;10592744;27;20059;-85
2022/12/15 20:26:05;;;;;;;40.73;18.20;;;2.60;99.90;;;0.19;100.00;99502.41;10610143;27;20060;-92
2022/12/15 20:31:14;;;;;;;43.13;18.13;;;2.60;99.90;;;0.17;100.00;99499.06;10602603;27;20136;-86
2022/12/15 20:36:23;;;;;;;39.00;17.97;;;2.60;99.90;;;0.16;100.00;99481.72;10573073;27;20070;-85
2022/12/15 20:41:28;;;;;;;40.93;15.13;;;2.60;99.90;;;0.17;100.00;99493.00;10585358;27;20059;-84
2022/12/15 20:46:34;;;;;;;37.83;14.73;;;2.60;99.90;;;0.18;100.00;99510.34;10625194;27;20064;-85
2022/12/15 20:51:37;;;;;;;32.47;14.83;;;2.60;99.90;;;0.19;100.00;99502.41;10585125;27;20067;-85
2022/12/15 20:56:41;;;;;;;31.93;14.43;;;2.60;99.90;;;0.20;100.00;99498.84;10593974;27;20056;-86
2022/12/15 21:01:45;;;;;;;32.83;13.87;;;2.60;99.90;;;0.22;100.00;99502.16;10570244;27;20063;-85
2022/12/15 21:06:48;;;;;;;35.07;13.30;;;2.70;99.90;;;0.22;100.00;99486.47;10578033;27;20059;-85
2022/12/15 21:11:57;;;;;;;40.03;15.83;;;2.70;99.90;;;0.23;100.00;99501.19;10593710;27;20521;-84
2022/12/15 21:17:00;;;;;;;42.47;19.10;;;2.70;99.90;;;0.21;100.00;99487.44;10624783;27;20055;-84
2022/12/15 21:22:05;;;;;;;47.57;20.40;;;2.70;99.90;;;0.24;100.00;99483.75;10608228;27;20435;-84
2022/12/15 21:27:13;;;;;;;43.10;17.90;;;2.70;99.90;;;0.25;100.00;99472.38;10603363;27;20062;-84
2022/12/15 21:32:16;;;;;;;37.07;17.17;;;2.70;99.90;;;0.23;100.00;99469.84;10573185;27;20389;-84
2022/12/15 21:37:27;;;;;;;28.20;14.53;;;2.70;99.90;;;0.26;100.00;99467.00;10604499;27;20059;-85
2022/12/15 21:42:34;;;;;;;27.87;12.50;;;2.70;99.90;;;0.30;100.00;99467.63;10592421;27;20067;-85
2022/12/15 21:53:00;;;;;;;28.40;12.73;;;2.70;99.90;;;0.28;100.00;99445.16;10629476;27;20059;-86
2022/12/15 21:58:20;;;;;;;25.73;11.80;;;2.70;99.90;;;0.30;100.00;99451.06;10605427;27;20061;-85
2022/12/15 22:03:24;;;;;;;34.13;14.30;;;2.70;99.90;;;0.34;100.00;99436.81;10546174;28;20516;-84
2022/12/15 22:08:28;;;;;;;27.33;11.43;;;2.80;99.90;;;0.34;100.00;99426.38;10599413;27;20048;-85
2022/12/15 22:13:32;;;;;;;23.63;11.67;;;2.80;99.90;;;0.33;100.00;99427.31;10630285;27;20082;-85
2022/12/15 22:18:35;;;;;;;25.30;11.23;;;2.80;99.90;;;0.31;100.00;99426.63;10600838;27;20084;-85
2022/12/15 22:23:38;;;;;;;19.73;10.00;;;2.70;99.90;;;0.34;100.00;99426.38;10591140;27;20071;-85
2022/12/15 22:28:41;;;;;;;25.17;10.43;;;2.70;99.90;;;0.35;100.00;99420.19;10579594;27;20066;-85
2022/12/15 22:33:45;;;;;;;37.50;13.53;;;2.80;99.90;;;0.35;100.00;99399.28;10598064;27;20056;-86
2022/12/15 22:38:48;;;;;;;28.57;11.47;;;2.80;99.90;;;0.36;100.00;99391.34;10621103;27;20055;-86
2022/12/15 22:43:54;;;;;;;26.03;10.60;;;2.80;99.90;;;0.38;100.00;99393.81;10567912;27;20059;-86
2022/12/15 22:48:57;;;;;;;25.83;9.33;;;2.80;99.90;;;0.37;100.00;99385.16;10582634;27;20059;-86
2022/12/15 22:54:00;;;;;;;22.20;10.00;;;2.80;99.90;;;0.40;100.00;99382.28;10588065;27;20572;-85
2022/12/15 22:59:10;;;;;;;24.17;8.87;;;2.80;99.90;;;0.39;100.00;99375.41;10614541;27;20060;-85
2022/12/15 23:04:13;;;;;;;30.77;10.30;;;2.80;99.90;;;0.43;100.00;99370.75;10551705;28;20057;-84
2022/12/15 23:09:16;;;;;;;24.80;9.13;;;2.80;99.90;;;0.45;100.00;99379.31;10586939;27;20519;-85
2022/12/15 23:16:18;;;;;;;32.00;10.53;;;2.90;99.90;;;0.46;100.00;99376.56;10570178;28;20082;-85
2022/12/15 23:19:45;;;;;;;28.67;9.70;;;2.90;99.90;;;0.48;100.00;99365.97;10571004;28;20064;-84
2022/12/15 23:24:48;;;;;;;25.63;8.57;;;2.90;99.90;;;0.51;100.00;99365.72;10557525;27;20052;-84
2022/12/15 23:29:51;;;;;;;28.50;9.47;;;2.90;99.90;;;0.49;100.00;99354.59;10582094;27;20082;-85
2022/12/15 23:34:56;;;;;;;32.57;8.90;;;2.90;99.90;;;0.48;100.00;99345.06;10575536;28;20060;-85
2022/12/15 23:39:59;;;;;;;26.63;8.07;;;2.90;99.90;;;0.50;100.00;99338.75;10565670;27;20118;-85
2022/12/15 23:45:04;;;;;;;23.77;9.30;;;2.90;99.90;;;0.48;100.00;99321.53;10560093;28;20063;-85